Time;durP1;ratioP1;P1;durP2;ratioP2;P2;SDS_P1;SDS_P2;PMS_P1;PMS_P2;Temp;Humidity;BMP_temperature;BMP_pressure;BME280_temperature;BME280_humidity;BME280_pressure;Samples;Min_cycle;Max_cycle;Signal;HPM_P1;HPM_P2
2023/06/05 00:01:37;;;;;;;2.55;1.25;;;11.10;99.90;;;;;;5077083;28;20142;-71
2023/06/05 00:04:03;;;;;;;1.02;0.90;;;11.10;99.90;;;;;;5077383;28;20039;-71
2023/06/05 00:06:30;;;;;;;;;;;11.20;99.90;;;;;;5128829;27;20105;-71
2023/06/05 00:08:56;;;;;;;1.40;1.10;;;11.20;99.90;;;;;;5094265;28;20006;-71
2023/06/05 00:11:22;;;;;;;2.42;1.70;;;11.20;99.90;;;;;;5094044;28;20122;-71
2023/06/05 00:13:49;;;;;;;;;;;11.20;86.80;;;;;;5095046;28;20083;-71
2023/06/05 00:16:15;;;;;;;1.33;0.90;;;11.30;99.90;;;;;;5112403;28;19926;-71
2023/06/05 00:18:43;;;;;;;1.40;1.00;;;11.30;99.90;;;;;;5093880;28;20375;-71
2023/06/05 00:21:09;;;;;;;1.40;1.08;;;11.30;99.90;;;;;;5077422;28;20127;-71
2023/06/05 00:23:35;;;;;;;1.75;1.10;;;11.30;99.90;;;;;;5077411;28;20355;-71
2023/06/05 00:26:01;;;;;;;1.10;1.00;;;11.40;99.90;;;;;;5112115;28;20039;-71
2023/06/05 00:28:27;;;;;;;0.75;0.65;;;11.40;99.90;;;;;;5075720;28;20040;-71
2023/06/05 00:30:53;;;;;;;1.08;0.90;;;11.50;99.90;;;;;;5093879;28;20051;-71
2023/06/05 00:33:18;;;;;;;0.65;0.63;;;11.50;99.90;;;;;;5092412;28;20071;-72
2023/06/05 00:35:44;;;;;;;0.68;0.65;;;11.50;99.90;;;;;;5074708;28;20090;-72
2023/06/05 00:38:10;;;;;;;0.82;0.60;;;11.50;99.90;;;;;;5068935;28;20113;-71
2023/06/05 00:40:36;;;;;;;0.80;0.60;;;11.50;99.90;;;;;;5087998;28;20074;-72
2023/06/05 00:43:02;;;;;;;0.68;0.50;;;11.50;99.90;;;;;;5091750;28;20043;-71
2023/06/05 00:45:28;;;;;;;0.63;0.57;;;11.50;99.90;;;;;;5092426;28;20503;-71
2023/06/05 00:47:54;;;;;;;0.50;0.50;;;11.60;99.90;;;;;;5075640;28;20360;-71
2023/06/05 00:50:24;;;;;;;0.63;0.52;;;11.60;99.90;;;;;;5091923;28;20137;-71
2023/06/05 00:52:51;;;;;;;0.65;0.47;;;11.60;99.90;;;;;;5092029;28;20043;-71
2023/06/05 00:55:17;;;;;;;0.60;0.50;;;11.60;99.90;;;;;;5092716;28;20039;-71
2023/06/05 00:57:44;;;;;;;0.80;0.60;;;11.60;99.90;;;;;;5090725;28;20046;-71
2023/06/05 01:00:12;;;;;;;0.85;0.60;;;11.60;99.90;;;;;;5126092;27;20077;-71
2023/06/05 01:02:39;;;;;;;0.60;0.60;;;11.60;99.90;;;;;;5092464;28;20133;-71
2023/06/05 01:05:06;;;;;;;1.20;0.68;;;11.60;99.90;;;;;;5064680;28;20055;-71
2023/06/05 01:07:34;;;;;;;0.50;0.47;;;11.60;99.90;;;;;;5085741;28;20126;-71
2023/06/05 01:10:01;;;;;;;0.43;0.43;;;11.70;99.90;;;;;;5125377;27;20123;-71
2023/06/05 01:12:48;;;;;;;0.50;0.50;;;11.70;99.90;;;;;;5091782;28;20055;-71
2023/06/05 01:15:15;;;;;;;0.93;0.50;;;11.70;99.90;;;;;;5034488;28;20055;-71
2023/06/05 01:17:45;;;;;;;0.70;0.70;;;11.70;99.90;;;;;;5073795;28;20656;-71
2023/06/05 01:20:11;;;;;;;0.70;0.50;;;11.70;99.90;;;;;;5091839;28;20047;-71
2023/06/05 01:22:39;;;;;;;1.00;0.70;;;11.70;99.90;;;;;;5090894;28;20502;-71
2023/06/05 01:25:07;;;;;;;0.50;0.50;;;11.70;99.90;;;;;;5091891;28;20175;-71
2023/06/05 01:27:38;;;;;;;0.70;0.50;;;11.70;99.90;;;;;;5089838;28;20359;-71
2023/06/05 01:30:19;;;;;;;0.57;0.40;;;11.70;1.00;;;;;;5075540;28;20036;-71
2023/06/05 01:33:34;;;;;;;0.40;0.40;;;11.70;1.00;;;;;;5089325;28;20112;-71
2023/06/05 01:36:04;;;;;;;0.80;0.50;;;11.70;1.00;;;;;;5045700;28;20178;-71
2023/06/05 01:38:34;;;;;;;0.70;0.70;;;11.70;1.00;;;;;;5124451;28;20053;-71
2023/06/05 01:41:02;;;;;;;1.17;0.80;;;11.70;99.90;;;;;;5088231;28;20467;-74
2023/06/05 01:43:28;;;;;;;0.90;0.70;;;11.60;99.90;;;;;;5090983;28;20410;-71
2023/06/05 01:45:56;;;;;;;;;;;11.60;99.90;;;;;;5075308;28;20035;-71
2023/06/05 01:48:23;;;;;;;0.57;0.57;;;11.60;99.90;;;;;;5126406;28;19915;-71
2023/06/05 01:50:53;;;;;;;0.60;0.60;;;11.50;1.00;;;;;;5092121;28;20051;-71
2023/06/05 01:53:19;;;;;;;0.90;0.70;;;11.50;1.00;;;;;;5092177;28;20457;-71
2023/06/05 01:55:46;;;;;;;0.60;0.60;;;11.50;1.00;;;;;;5109409;28;20398;-71
2023/06/05 01:58:12;;;;;;;0.90;0.70;;;11.50;1.00;;;;;;5042540;28;20052;-72
2023/06/05 02:00:38;;;;;;;1.08;0.40;;;11.40;1.00;;;;;;5092507;28;20058;-72
2023/06/05 02:03:04;;;;;;;0.50;0.50;;;11.40;1.00;;;;;;5092357;28;20046;-72
2023/06/05 02:05:30;;;;;;;;;;;11.40;1.00;;;;;;5093483;28;20047;-72
2023/06/05 02:07:58;;;;;;;0.50;0.50;;;11.40;1.00;;;;;;5075520;28;19946;-72
2023/06/05 02:10:24;;;;;;;0.43;0.40;;;11.40;1.00;;;;;;5092203;28;20058;-72
2023/06/05 02:12:51;;;;;;;0.60;0.60;;;11.40;14.60;;;;;;5092323;28;20495;-72
2023/06/05 02:15:16;;;;;;;;;;;11.50;22.60;;;;;;5092845;28;20044;-72
2023/06/05 02:17:50;;;;;;;0.60;0.50;;;11.50;23.90;;;;;;5092232;28;19916;-72
2023/06/05 02:20:16;;;;;;;0.80;0.50;;;11.40;9.80;;;;;;5092541;28;20051;-72
2023/06/05 02:22:44;;;;;;;0.70;0.60;;;11.50;1.00;;;;;;5075571;28;20043;-72
2023/06/05 02:25:12;;;;;;;0.65;0.63;;;11.50;1.00;;;;;;5092375;28;20516;-72
2023/06/05 02:27:38;;;;;;;0.40;0.40;;;11.50;1.00;;;;;;5092183;28;20043;-72
2023/06/05 02:30:04;;;;;;;0.65;0.50;;;11.50;1.00;;;;;;5091915;28;20600;-72
2023/06/05 02:32:31;;;;;;;1.23;0.80;;;11.50;1.00;;;;;;5126411;28;20054;-72
2023/06/05 02:34:57;;;;;;;0.50;0.50;;;11.50;6.30;;;;;;5091840;28;20059;-72
2023/06/05 02:37:24;;;;;;;;;;;11.60;1.00;;;;;;5111167;28;20042;-72
2023/06/05 02:39:50;;;;;;;1.17;0.67;;;11.60;1.00;;;;;;5125948;28;19980;-73
2023/06/05 02:42:16;;;;;;;0.70;0.55;;;11.60;1.00;;;;;;5094852;28;20083;-72
2023/06/05 02:44:42;;;;;;;0.60;0.60;;;11.60;1.00;;;;;;5091198;28;20422;-72
2023/06/05 02:47:08;;;;;;;0.65;0.65;;;11.60;1.00;;;;;;5091398;28;20040;-72
2023/06/05 02:49:35;;;;;;;0.55;0.55;;;11.60;1.00;;;;;;5092231;28;20046;-72
2023/06/05 02:52:01;;;;;;;0.93;0.57;;;11.60;1.00;;;;;;5094324;28;20043;-72
2023/06/05 02:54:28;;;;;;;0.55;0.50;;;11.60;1.00;;;;;;5106304;28;20130;-72
2023/06/05 02:56:56;;;;;;;0.40;0.40;;;11.60;1.00;;;;;;5094136;28;20047;-72
2023/06/05 02:59:24;;;;;;;1.00;0.65;;;11.60;99.90;;;;;;5095261;28;20047;-72
2023/06/05 03:01:51;;;;;;;0.60;0.60;;;11.60;99.90;;;;;;5077653;28;20112;-72
2023/06/05 03:04:23;;;;;;;1.15;0.70;;;11.60;99.90;;;;;;5113837;28;20444;-72
2023/06/05 03:06:50;;;;;;;0.80;0.60;;;11.60;99.90;;;;;;5095324;28;20047;-72
2023/06/05 03:09:16;;;;;;;1.13;0.80;;;11.60;99.90;;;;;;5078369;28;20052;-72
2023/06/05 03:11:43;;;;;;;1.17;0.73;;;11.60;99.90;;;;;;5113620;28;20150;-72
2023/06/05 03:14:09;;;;;;;0.98;0.75;;;11.60;99.90;;;;;;5078626;28;20051;-72
2023/06/05 03:16:41;;;;;;;1.27;0.73;;;11.60;99.90;;;;;;5078047;28;20475;-72
2023/06/05 03:19:12;;;;;;;0.88;0.57;;;11.50;99.90;;;;;;5094957;28;20051;-72
2023/06/05 03:21:41;;;;;;;0.52;0.50;;;11.60;99.90;;;;;;5095071;28;20046;-72
2023/06/05 03:24:15;;;;;;;0.60;0.50;;;11.60;99.90;;;;;;5095011;28;20079;-72
2023/06/05 03:26:41;;;;;;;0.93;0.70;;;11.50;99.90;;;;;;5094769;28;20105;-72
2023/06/05 03:29:08;;;;;;;0.77;0.77;;;11.60;99.90;;;;;;5094423;28;20088;-72
2023/06/05 03:31:35;;;;;;;;;;;11.60;99.90;;;;;;5078389;28;20039;-72
2023/06/05 03:34:02;;;;;;;0.85;0.70;;;11.60;99.90;;;;;;5129291;27;19916;-73
2023/06/05 03:36:29;;;;;;;0.70;0.70;;;11.60;99.90;;;;;;5077880;28;20032;-72
2023/06/05 03:38:56;;;;;;;0.60;0.60;;;11.60;99.90;;;;;;5095018;28;20050;-72
2023/06/05 03:41:22;;;;;;;1.38;0.70;;;11.60;99.90;;;;;;5094348;28;20088;-72
2023/06/05 03:43:49;;;;;;;0.65;0.65;;;11.60;99.90;;;;;;5094272;28;20048;-72
2023/06/05 03:46:18;;;;;;;0.95;0.88;;;11.60;99.90;;;;;;5077688;28;20047;-72
2023/06/05 03:48:59;;;;;;;1.58;1.15;;;11.60;99.90;;;;;;5094514;28;20076;-72
2023/06/05 03:51:30;;;;;;;2.38;1.40;;;11.60;99.90;;;;;;5094473;28;20036;-72
2023/06/05 03:53:59;;;;;;;1.50;1.23;;;11.70;24.70;;;;;;5078027;28;20045;-72
2023/06/05 03:56:31;;;;;;;2.65;0.90;;;11.70;93.70;;;;;;5112757;28;20139;-72
2023/06/05 03:58:57;;;;;;;0.98;0.80;;;11.70;99.90;;;;;;5094004;28;20078;-72
2023/06/05 04:01:23;;;;;;;1.35;0.80;;;11.70;99.90;;;;;;5094353;28;20039;-72
2023/06/05 04:03:49;;;;;;;1.20;1.00;;;11.70;99.90;;;;;;5077184;28;20089;-72
2023/06/05 04:06:14;;;;;;;2.10;1.40;;;11.80;99.90;;;;;;5094311;28;20050;-72
2023/06/05 04:08:40;;;;;;;2.33;1.70;;;11.70;99.90;;;;;;5077386;28;20032;-72
2023/06/05 04:11:06;;;;;;;2.03;1.60;;;11.70;99.90;;;;;;5094060;28;20046;-72
2023/06/05 04:13:31;;;;;;;1.83;1.50;;;11.70;99.90;;;;;;5094088;28;20047;-72
2023/06/05 04:15:57;;;;;;;2.20;1.75;;;11.80;1.00;;;;;;5093157;28;20054;-72
2023/06/05 04:18:23;;;;;;;2.22;1.70;;;11.80;99.90;;;;;;5062768;28;20138;-73
2023/06/05 04:20:48;;;;;;;1.80;1.40;;;11.80;99.90;;;;;;5126975;27;20047;-71
2023/06/05 04:23:14;;;;;;;2.67;1.40;;;11.80;1.00;;;;;;5092756;28;20418;-72
2023/06/05 04:25:45;;;;;;;1.58;1.40;;;11.80;1.00;;;;;;5093814;28;20069;-72
2023/06/05 04:28:11;;;;;;;1.45;1.30;;;11.80;25.90;;;;;;5093497;28;20058;-72
2023/06/05 04:30:37;;;;;;;1.60;1.35;;;11.90;61.10;;;;;;5093857;28;20093;-72
2023/06/05 04:33:06;;;;;;;1.52;1.40;;;11.90;78.50;;;;;;5127873;27;20043;-72
2023/06/05 04:35:33;;;;;;;2.42;1.38;;;11.90;1.00;;;;;;5126788;27;20501;-73
2023/06/05 04:38:00;;;;;;;1.30;1.20;;;11.90;1.00;;;;;;5076873;28;20127;-73
2023/06/05 04:40:26;;;;;;;1.65;1.10;;;12.00;1.00;;;;;;5093287;28;20087;-73
2023/06/05 04:42:54;;;;;;;1.50;1.35;;;12.00;1.00;;;;;;5093659;28;20097;-73
2023/06/05 04:45:21;;;;;;;2.90;1.80;;;12.00;99.90;;;;;;5111823;28;20052;-73
2023/06/05 04:47:47;;;;;;;2.35;1.80;;;12.00;33.80;;;;;;5077031;28;20079;-73
2023/06/05 04:50:33;;;;;;;2.47;1.60;;;12.00;42.60;;;;;;5093386;28;20462;-72
2023/06/05 04:52:59;;;;;;;1.45;1.23;;;12.10;1.00;;;;;;5111926;28;20051;-73
2023/06/05 04:55:25;;;;;;;1.95;1.60;;;12.10;92.80;;;;;;5093317;28;20047;-72
2023/06/05 04:57:51;;;;;;;2.10;1.90;;;12.10;1.00;;;;;;5077161;28;20073;-73
2023/06/05 05:00:17;;;;;;;1.50;1.40;;;12.10;1.00;;;;;;5093217;28;20096;-73
2023/06/05 05:02:43;;;;;;;1.30;0.95;;;12.20;1.00;;;;;;5093077;28;20040;-73
2023/06/05 05:05:13;;;;;;;1.60;1.50;;;12.30;31.70;;;;;;5092959;28;20049;-72
2023/06/05 05:07:42;;;;;;;1.20;1.10;;;12.30;1.00;;;;;;5093118;28;20050;-73
2023/06/05 05:10:09;;;;;;;2.10;1.20;;;12.30;11.60;;;;;;5076179;28;20131;-73
2023/06/05 05:12:36;;;;;;;1.30;1.17;;;12.30;1.00;;;;;;5076258;28;20054;-72
2023/06/05 05:15:03;;;;;;;1.40;1.30;;;12.40;27.00;;;;;;5124493;27;20040;-73
2023/06/05 05:17:30;;;;;;;1.10;0.80;;;12.50;1.00;;;;;;5090956;28;20398;-73
2023/06/05 05:19:55;;;;;;;1.73;1.27;;;12.60;44.70;;;;;;5089204;28;20047;-73
2023/06/05 05:22:21;;;;;;;1.92;1.23;;;12.60;1.00;;;;;;5090528;28;20394;-73
2023/06/05 05:24:47;;;;;;;1.55;1.20;;;12.60;99.90;;;;;;5073537;28;20039;-73
2023/06/05 05:27:12;;;;;;;1.45;1.08;;;12.60;99.90;;;;;;5092620;28;20039;-73
2023/06/05 05:29:38;;;;;;;1.80;1.42;;;12.70;99.90;;;;;;5077115;28;20085;-73
2023/06/05 05:32:05;;;;;;;1.98;1.30;;;12.70;99.90;;;;;;5091779;28;20581;-73
2023/06/05 05:34:31;;;;;;;1.38;0.90;;;12.70;99.90;;;;;;5090551;28;20467;-72
2023/06/05 05:36:57;;;;;;;1.15;1.00;;;12.80;99.90;;;;;;5074511;28;20046;-72
2023/06/05 05:39:22;;;;;;;2.03;1.10;;;12.80;99.90;;;;;;5109477;28;20612;-72
2023/06/05 05:41:48;;;;;;;1.58;1.30;;;12.90;99.90;;;;;;5092390;28;20134;-72
2023/06/05 05:44:15;;;;;;;1.23;1.13;;;12.90;26.10;;;;;;5091758;28;20419;-71
2023/06/05 05:46:41;;;;;;;1.30;1.02;;;12.90;1.00;;;;;;5109644;28;20122;-71
2023/06/05 05:49:06;;;;;;;1.48;1.10;;;12.90;1.00;;;;;;5092855;28;20466;-73
2023/06/05 05:51:33;;;;;;;1.65;1.30;;;13.00;1.00;;;;;;5074873;28;20451;-73
2023/06/05 05:53:59;;;;;;;1.95;1.38;;;13.10;1.00;;;;;;5075106;28;20454;-73
2023/06/05 05:56:25;;;;;;;1.55;1.40;;;13.10;1.00;;;;;;5109500;28;20050;-71
2023/06/05 05:58:51;;;;;;;;;;;13.00;99.90;;;;;;5091122;28;20055;-71
2023/06/05 06:01:16;;;;;;;1.17;1.08;;;13.00;99.90;;;;;;5075652;28;19919;-72
2023/06/05 06:03:43;;;;;;;1.65;1.15;;;13.00;99.90;;;;;;5075519;28;20502;-71
2023/06/05 06:06:10;;;;;;;1.73;1.20;;;13.00;99.90;;;;;;5109523;28;20398;-72
2023/06/05 06:08:35;;;;;;;2.10;1.50;;;13.00;99.90;;;;;;5091879;28;20062;-72
2023/06/05 06:11:06;;;;;;;1.30;1.20;;;13.10;99.90;;;;;;5075238;28;20473;-72
2023/06/05 06:13:35;;;;;;;1.23;1.00;;;13.20;73.00;;;;;;5126498;28;20055;-72
2023/06/05 06:16:02;;;;;;;1.65;1.15;;;13.30;13.10;;;;;;5089572;28;20036;-75
2023/06/05 06:18:28;;;;;;;0.80;0.80;;;13.40;63.40;;;;;;5088627;28;20039;-71
2023/06/05 06:20:53;;;;;;;1.45;1.02;;;13.40;96.70;;;;;;5082941;28;20066;-71
2023/06/05 06:23:19;;;;;;;2.63;1.40;;;13.40;99.60;;;;;;5090874;28;20585;-71
2023/06/05 06:25:45;;;;;;;1.40;1.20;;;13.30;92.00;;;;;;5088577;28;20040;-71
2023/06/05 06:28:11;;;;;;;1.60;1.10;;;13.30;56.50;;;;;;5075181;28;20047;-71
2023/06/05 06:30:36;;;;;;;2.55;1.17;;;13.20;93.80;;;;;;5078380;28;20035;-72
2023/06/05 06:33:04;;;;;;;1.70;1.40;;;13.00;99.90;;;;;;5074549;28;20040;-71
2023/06/05 06:35:31;;;;;;;1.10;1.00;;;13.00;99.90;;;;;;5093794;28;20047;-71
2023/06/05 06:37:58;;;;;;;1.10;0.80;;;13.10;99.90;;;;;;5068946;28;20096;-71
2023/06/05 06:40:24;;;;;;;1.33;1.10;;;13.20;99.90;;;;;;5094783;28;20397;-71
2023/06/05 06:42:50;;;;;;;1.30;0.93;;;13.40;99.90;;;;;;5107862;28;20040;-71
2023/06/05 06:45:17;;;;;;;1.40;1.20;;;13.60;99.90;;;;;;5129163;27;20051;-77
2023/06/05 06:47:43;;;;;;;1.38;1.10;;;13.70;99.90;;;;;;5095829;28;20108;-71
2023/06/05 06:50:09;;;;;;;1.10;1.00;;;14.00;60.20;;;;;;5094690;28;20036;-72
2023/06/05 06:52:35;;;;;;;1.00;0.90;;;14.30;1.00;;;;;;5075684;28;20051;-71
2023/06/05 06:55:01;;;;;;;1.00;0.90;;;14.50;1.00;;;;;;5129764;27;20048;-71
2023/06/05 06:57:26;;;;;;;1.30;1.10;;;14.70;99.90;;;;;;5073239;28;20051;-71
2023/06/05 06:59:53;;;;;;;1.40;1.30;;;14.80;1.00;;;;;;5075120;28;20370;-71
2023/06/05 07:02:20;;;;;;;1.42;1.17;;;14.80;99.90;;;;;;5075475;28;20052;-71
2023/06/05 07:04:47;;;;;;;1.92;1.45;;;15.00;99.90;;;;;;5110718;28;20096;-71
2023/06/05 07:07:15;;;;;;;1.75;1.27;;;15.00;99.90;;;;;;5077362;28;20061;-71
2023/06/05 07:09:42;;;;;;;1.70;1.40;;;15.10;99.90;;;;;;5091412;28;20081;-71
2023/06/05 07:12:11;;;;;;;3.80;1.45;;;15.20;99.90;;;;;;5110042;28;20044;-71
2023/06/05 07:14:38;;;;;;;1.20;1.10;;;15.10;99.90;;;;;;5091152;28;20049;-71
2023/06/05 07:17:05;;;;;;;1.60;1.40;;;15.10;99.90;;;;;;5125556;27;20083;-71
2023/06/05 07:19:32;;;;;;;2.30;1.65;;;15.10;99.90;;;;;;5076140;28;20052;-71
2023/06/05 07:21:58;;;;;;;3.08;1.80;;;15.00;99.90;;;;;;5074083;28;20040;-71
2023/06/05 07:24:25;;;;;;;2.47;1.50;;;15.00;99.90;;;;;;5074615;28;20119;-71
2023/06/05 07:26:55;;;;;;;1.98;1.42;;;15.00;99.90;;;;;;5091263;28;20158;-71
2023/06/05 07:29:23;;;;;;;1.50;1.38;;;15.10;99.90;;;;;;5074812;28;20581;-71
2023/06/05 07:31:50;;;;;;;1.75;1.58;;;15.00;99.90;;;;;;5108441;28;20070;-71
2023/06/05 07:34:17;;;;;;;2.40;1.85;;;15.20;99.90;;;;;;5074444;28;20040;-71
2023/06/05 07:36:45;;;;;;;3.95;1.80;;;15.20;99.90;;;;;;5107701;28;20396;-71
2023/06/05 07:39:11;;;;;;;2.30;1.60;;;15.20;99.90;;;;;;5094049;28;20479;-70
2023/06/05 07:41:39;;;;;;;1.65;1.38;;;15.10;99.90;;;;;;5128544;27;20511;-70
2023/06/05 07:44:07;;;;;;;2.40;1.70;;;15.10;99.90;;;;;;5077213;28;20052;-71
2023/06/05 07:46:33;;;;;;;2.92;1.80;;;15.20;99.90;;;;;;5077822;28;20047;-71
2023/06/05 07:48:59;;;;;;;2.35;1.60;;;15.10;99.90;;;;;;5094495;28;20112;-71
2023/06/05 07:51:25;;;;;;;1.98;1.50;;;15.00;99.90;;;;;;5094458;28;20035;-71
2023/06/05 07:53:50;;;;;;;2.58;1.70;;;15.10;99.90;;;;;;5094533;28;20082;-71
2023/06/05 07:56:16;;;;;;;2.10;1.40;;;15.00;99.90;;;;;;5077423;28;20079;-71
2023/06/05 07:58:42;;;;;;;2.28;1.75;;;15.10;99.90;;;;;;5094283;28;20043;-71
2023/06/05 08:01:08;;;;;;;;;;;15.10;99.90;;;;;;5112922;28;20040;-71
2023/06/05 08:03:34;;;;;;;1.80;1.48;;;15.00;99.90;;;;;;5094084;28;19924;-70
2023/06/05 08:06:01;;;;;;;2.40;1.50;;;15.10;99.90;;;;;;5094008;28;20036;-70
2023/06/05 08:08:27;;;;;;;1.40;1.00;;;15.30;99.90;;;;;;5093835;28;20066;-71
2023/06/05 08:10:53;;;;;;;1.25;1.00;;;15.70;99.90;;;;;;5093786;28;20414;-71
2023/06/05 08:13:18;;;;;;;1.25;1.10;;;16.20;99.90;;;;;;5076610;28;20083;-71
2023/06/05 08:15:44;;;;;;;1.77;1.13;;;16.70;99.90;;;;;;5093635;28;20125;-70
2023/06/05 08:18:10;;;;;;;;;;;17.10;89.90;;;;;;5094523;28;20051;-71
2023/06/05 08:20:36;;;;;;;1.98;1.50;;;17.10;1.00;;;;;;5093665;28;19915;-71
2023/06/05 08:23:01;;;;;;;2.13;1.40;;;17.10;42.50;;;;;;5093552;28;20047;-71
2023/06/05 08:25:27;;;;;;;2.40;1.45;;;17.10;83.60;;;;;;5076686;28;20051;-71
2023/06/05 08:27:53;;;;;;;3.65;1.60;;;17.00;40.70;;;;;;5093397;28;20101;-71
2023/06/05 08:30:19;;;;;;;1.48;1.20;;;17.00;99.90;;;;;;5093745;28;20036;-72
2023/06/05 08:32:46;;;;;;;1.63;1.08;;;17.40;92.50;;;;;;5093560;28;20071;-71
2023/06/05 08:35:12;;;;;;;2.50;1.65;;;17.80;49.50;;;;;;5076469;28;20100;-71
2023/06/05 08:37:38;;;;;;;;;;;17.60;1.40;;;;;;5076748;28;20047;-71
2023/06/05 08:40:06;;;;;;;2.70;1.25;;;17.70;11.30;;;;;;5093688;28;19919;-71
2023/06/05 08:42:32;;;;;;;2.55;1.30;;;17.80;1.00;;;;;;5093036;28;20039;-71
2023/06/05 08:44:59;;;;;;;1.38;1.25;;;17.80;1.00;;;;;;5092928;28;20502;-71
2023/06/05 08:47:28;;;;;;;;;;;18.20;1.00;;;;;;5093685;28;20110;-71
2023/06/05 08:49:54;;;;;;;1.73;1.30;;;18.20;1.00;;;;;;5092438;28;19922;-71
2023/06/05 08:52:23;;;;;;;2.25;1.40;;;18.20;1.00;;;;;;5076474;28;20091;-71
2023/06/05 08:54:49;;;;;;;2.20;1.60;;;18.20;99.90;;;;;;5093450;28;20077;-71
2023/06/05 08:57:15;;;;;;;1.80;1.60;;;18.10;1.80;;;;;;5093182;28;20142;-71
2023/06/05 08:59:41;;;;;;;;;;;17.90;1.00;;;;;;5111889;28;20184;-71
2023/06/05 09:02:09;;;;;;;2.17;1.58;;;17.70;1.00;;;;;;5092914;28;20374;-71
2023/06/05 09:04:34;;;;;;;1.40;1.20;;;17.80;1.00;;;;;;5093590;28;20052;-71
2023/06/05 09:07:00;;;;;;;;;;;17.80;1.00;;;;;;5076156;28;20376;-71
2023/06/05 09:09:26;;;;;;;2.10;1.20;;;18.20;1.00;;;;;;5092899;28;19916;-71
2023/06/05 09:12:05;;;;;;;;;;;18.50;1.00;;;;;;5092769;28;20392;-71
2023/06/05 09:14:31;;;;;;;2.30;1.60;;;18.70;1.00;;;;;;5072143;28;20287;-71
2023/06/05 09:16:57;;;;;;;;;;;18.70;1.00;;;;;;5106763;28;20464;-70
2023/06/05 09:19:27;;;;;;;1.50;1.25;;;18.80;99.90;;;;;;5072298;28;19923;-70
2023/06/05 09:21:54;;;;;;;1.90;1.50;;;19.10;1.00;;;;;;5106054;28;20071;-77
2023/06/05 09:24:22;;;;;;;2.47;1.50;;;19.30;1.00;;;;;;5055693;28;20473;-71
2023/06/05 09:27:01;;;;;;;1.90;1.50;;;18.70;99.90;;;;;;5082861;28;20486;-71
2023/06/05 09:29:36;;;;;;;2.53;1.67;;;18.60;1.00;;;;;;5108813;28;20079;-71
2023/06/05 09:32:08;;;;;;;2.90;1.83;;;18.20;99.90;;;;;;5076457;28;20121;-71
2023/06/05 09:34:39;;;;;;;1.58;1.35;;;17.80;1.00;;;;;;5095005;27;20047;-71
2023/06/05 09:37:09;;;;;;;1.90;1.33;;;17.70;1.00;;;;;;5078202;28;20048;-71
2023/06/05 09:39:49;;;;;;;1.50;1.20;;;17.60;9.40;;;;;;5109761;28;20088;-71
2023/06/05 09:42:15;;;;;;;2.25;1.60;;;17.90;38.10;;;;;;5131250;27;20039;-70
2023/06/05 09:44:41;;;;;;;;;;;17.80;1.00;;;;;;5079253;28;20478;-70
2023/06/05 09:47:09;;;;;;;1.67;1.45;;;18.00;1.00;;;;;;5097432;28;19919;-71
2023/06/05 09:49:41;;;;;;;1.70;1.45;;;18.30;1.00;;;;;;5129491;27;20043;-71
2023/06/05 09:52:08;;;;;;;2.30;1.58;;;18.30;1.00;;;;;;5106490;28;20035;-71
2023/06/05 09:54:40;;;;;;;1.92;1.60;;;18.50;1.00;;;;;;5095246;28;20043;-71
2023/06/05 09:57:10;;;;;;;1.67;1.45;;;18.50;99.90;;;;;;5092669;28;20035;-71
2023/06/05 09:59:48;;;;;;;1.92;1.58;;;18.60;99.90;;;;;;5122640;28;20119;-70
2023/06/05 10:02:16;;;;;;;2.65;1.75;;;18.70;1.00;;;;;;5090664;28;20104;-71
2023/06/05 10:04:48;;;;;;;1.90;1.33;;;18.60;99.90;;;;;;5094073;28;20138;-72
2023/06/05 10:07:15;;;;;;;1.40;1.30;;;18.60;99.90;;;;;;5126740;27;20035;-71
2023/06/05 10:09:42;;;;;;;2.13;1.73;;;18.60;99.90;;;;;;5095970;28;20557;-71
2023/06/05 10:12:08;;;;;;;2.00;1.80;;;18.40;99.90;;;;;;5096222;28;20092;-71
2023/06/05 10:14:34;;;;;;;;;;;18.60;1.00;;;;;;5079320;28;20083;-71
2023/06/05 10:17:02;;;;;;;2.88;1.60;;;18.50;99.90;;;;;;5096010;28;20256;-71
2023/06/05 10:19:28;;;;;;;2.35;1.60;;;18.80;99.90;;;;;;5095772;28;20046;-71
2023/06/05 10:21:54;;;;;;;1.30;1.00;;;18.90;99.90;;;;;;5095533;28;20032;-71
2023/06/05 10:24:22;;;;;;;;;;;19.30;99.90;;;;;;5096652;28;20125;-71
2023/06/05 10:26:54;;;;;;;2.08;1.50;;;19.60;99.90;;;;;;5092893;28;20345;-71
2023/06/05 10:29:46;;;;;;;2.80;1.70;;;19.70;99.90;;;;;;5095694;28;20047;-71
2023/06/05 10:32:18;;;;;;;2.20;1.45;;;19.60;99.90;;;;;;5092942;28;20027;-71
2023/06/05 10:35:15;;;;;;;1.98;1.50;;;19.60;99.90;;;;;;5092587;28;20449;-71
2023/06/05 10:38:17;;;;;;;1.80;1.40;;;19.60;99.90;;;;;;5068740;28;20422;-71
2023/06/05 10:41:02;;;;;;;2.30;1.60;;;19.70;99.90;;;;;;5095407;28;20089;-71
2023/06/05 10:43:52;;;;;;;2.30;1.55;;;19.40;99.90;;;;;;5095424;28;20044;-71
2023/06/05 10:46:37;;;;;;;3.13;1.70;;;19.50;99.90;;;;;;5078698;28;20044;-72
2023/06/05 10:49:07;;;;;;;2.45;1.35;;;19.60;99.90;;;;;;5095811;28;20093;-72
2023/06/05 10:51:44;;;;;;;1.40;1.30;;;19.70;99.90;;;;;;5077373;28;20498;-72
2023/06/05 10:54:15;;;;;;;2.28;1.40;;;19.90;99.90;;;;;;5095793;28;20044;-72
2023/06/05 10:57:02;;;;;;;2.05;1.42;;;19.90;99.90;;;;;;5078471;28;20044;-72
2023/06/05 10:59:34;;;;;;;1.45;1.13;;;19.70;99.90;;;;;;5095345;28;20487;-72
2023/06/05 11:02:14;;;;;;;2.08;1.50;;;19.80;99.90;;;;;;5095333;28;20143;-72
2023/06/05 11:04:46;;;;;;;2.20;1.45;;;19.60;99.90;;;;;;5095233;28;20096;-72
2023/06/05 11:07:23;;;;;;;2.28;1.60;;;19.60;99.90;;;;;;5094946;28;20035;-72
2023/06/05 11:10:20;;;;;;;1.58;1.33;;;19.50;99.90;;;;;;5095016;28;20075;-72
2023/06/05 11:12:46;;;;;;;;;;;19.80;99.90;;;;;;5077428;28;20047;-72
2023/06/05 11:15:16;;;;;;;1.50;1.08;;;20.30;99.90;;;;;;5094440;28;19927;-72
2023/06/05 11:17:46;;;;;;;1.88;1.40;;;20.70;99.90;;;;;;5094727;28;20043;-72
2023/06/05 11:20:21;;;;;;;1.77;1.30;;;20.70;99.90;;;;;;5094508;28;20130;-72
2023/06/05 11:22:53;;;;;;;2.35;0.90;;;20.50;99.90;;;;;;5078199;28;20047;-72
2023/06/05 11:25:21;;;;;;;2.22;1.52;;;20.60;99.90;;;;;;5094789;28;20047;-72
2023/06/05 11:27:49;;;;;;;1.30;1.10;;;20.50;99.90;;;;;;5094578;28;20051;-72
2023/06/05 11:30:28;;;;;;;1.60;1.20;;;20.70;99.90;;;;;;5112990;28;20525;-72
2023/06/05 11:32:58;;;;;;;6.63;1.40;;;20.40;99.90;;;;;;5078357;28;20048;-72
2023/06/05 11:35:28;;;;;;;1.77;1.30;;;20.30;99.90;;;;;;5094287;28;20047;-72
2023/06/05 11:38:26;;;;;;;1.60;1.17;;;20.40;99.90;;;;;;5077423;28;20055;-72
2023/06/05 11:40:53;;;;;;;1.10;1.00;;;20.60;99.90;;;;;;5050122;28;20116;-72
2023/06/05 11:43:20;;;;;;;1.55;1.05;;;20.70;99.90;;;;;;5094149;28;20486;-72
2023/06/05 11:45:54;;;;;;;1.60;1.30;;;20.30;99.90;;;;;;5075401;28;20405;-72
2023/06/05 11:48:21;;;;;;;2.05;1.30;;;20.50;99.90;;;;;;5074174;28;20059;-72
2023/06/05 11:51:01;;;;;;;2.72;1.88;;;20.00;99.90;;;;;;5108122;28;20051;-72
2023/06/05 11:53:28;;;;;;;1.73;1.40;;;20.10;99.90;;;;;;5074243;28;20063;-72
2023/06/05 11:56:06;;;;;;;1.55;1.30;;;20.20;99.90;;;;;;5073952;28;20064;-72
2023/06/05 11:58:38;;;;;;;2.35;1.55;;;20.40;99.90;;;;;;5074301;28;20041;-72
2023/06/05 12:01:21;;;;;;;2.33;1.60;;;20.50;99.90;;;;;;5108358;28;20112;-71
2023/06/05 12:03:49;;;;;;;2.05;1.45;;;20.40;99.90;;;;;;5057167;28;20048;-71
2023/06/05 12:06:18;;;;;;;1.85;1.40;;;20.60;99.90;;;;;;5074117;28;20052;-71
2023/06/05 12:08:44;;;;;;;1.98;1.50;;;20.70;99.90;;;;;;5091867;28;20442;-72
2023/06/05 12:11:21;;;;;;;1.30;1.10;;;20.80;99.90;;;;;;5080116;28;20047;-71
2023/06/05 12:13:51;;;;;;;1.83;1.40;;;20.50;99.90;;;;;;5094860;28;20050;-71
2023/06/05 12:16:18;;;;;;;2.65;1.23;;;20.50;99.90;;;;;;5093405;28;20059;-71
2023/06/05 12:18:45;;;;;;;1.75;1.38;;;20.80;99.90;;;;;;5093677;28;20055;-71
2023/06/05 12:21:21;;;;;;;2.15;1.40;;;20.90;99.90;;;;;;5093447;28;20134;-71
2023/06/05 12:23:47;;;;;;;2.28;1.33;;;21.10;99.90;;;;;;5093375;28;20056;-71
2023/06/05 12:26:15;;;;;;;1.90;1.60;;;21.20;99.90;;;;;;5093562;28;20048;-71
2023/06/05 12:28:42;;;;;;;1.63;1.20;;;20.80;99.90;;;;;;5076688;28;20047;-71
2023/06/05 12:31:07;;;;;;;2.00;1.60;;;20.60;99.90;;;;;;5060058;28;20452;-71
2023/06/05 12:33:47;;;;;;;2.72;1.77;;;20.60;99.90;;;;;;5076869;28;20039;-71
2023/06/05 12:36:12;;;;;;;1.50;1.13;;;20.70;99.90;;;;;;5093436;28;20048;-71
2023/06/05 12:38:42;;;;;;;1.67;1.35;;;20.70;99.90;;;;;;5076475;28;20100;-71
2023/06/05 12:41:08;;;;;;;1.88;1.50;;;20.40;99.90;;;;;;5090987;28;20047;-72
2023/06/05 12:43:37;;;;;;;2.50;1.90;;;20.60;99.90;;;;;;5093120;28;20132;-72
2023/06/05 12:46:03;;;;;;;2.60;1.45;;;20.30;99.90;;;;;;5072431;28;20086;-78
2023/06/05 12:48:29;;;;;;;1.70;1.60;;;20.50;99.90;;;;;;5072936;28;20071;-70
2023/06/05 12:50:56;;;;;;;2.58;1.90;;;20.20;99.90;;;;;;5090546;28;20515;-71
2023/06/05 12:53:22;;;;;;;3.70;2.17;;;20.10;99.90;;;;;;5089249;28;20096;-74
2023/06/05 12:55:47;;;;;;;;;;;20.10;99.90;;;;;;5076269;28;20346;-72
2023/06/05 12:58:13;;;;;;;3.35;2.10;;;20.10;99.90;;;;;;5089202;28;20420;-72
2023/06/05 13:00:38;;;;;;;3.05;1.65;;;20.20;99.90;;;;;;5089706;28;20547;-72
2023/06/05 13:03:04;;;;;;;;;;;20.50;99.90;;;;;;5111141;28;20048;-72